Time;durP1;ratioP1;P1;durP2;ratioP2;P2;SDS_P1;SDS_P2;PMS_P1;PMS_P2;Temp;Humidity;BMP_temperature;BMP_pressure;BME280_temperature;BME280_humidity;BME280_pressure;Samples;Min_cycle;Max_cycle;Signal;HPM_P1;HPM_P2
2022/12/22 03:27:29;;;;;;;1.58;1.40;;;8.40;99.90;;;;;;5011654;28;20045;-81
2022/12/22 03:29:55;;;;;;;1.80;1.58;;;8.40;99.90;;;;;;5011297;28;20388;-81
2022/12/22 03:32:21;;;;;;;1.73;1.63;;;9.40;99.90;;;;;;5011600;28;20415;-80
2022/12/22 03:34:46;;;;;;;2.88;1.83;;;8.40;99.90;;;;;;5010370;28;20045;-80
2022/12/22 03:37:12;;;;;;;1.45;1.35;;;8.40;99.90;;;;;;5009958;28;20097;-80
2022/12/22 03:39:38;;;;;;;1.73;1.42;;;8.40;99.90;;;;;;5011235;28;20050;-80
2022/12/22 03:47:32;;;;;;;2.15;1.42;;;8.50;99.90;;;;;;5000220;28;20561;-81
2022/12/22 03:49:58;;;;;;;4.47;2.15;;;8.40;99.90;;;;;;5013349;28;20045;-80
2022/12/22 03:52:23;;;;;;;2.28;1.70;;;8.50;99.90;;;;;;5013614;28;20076;-80
2022/12/22 03:54:49;;;;;;;2.20;1.55;;;8.40;99.90;;;;;;5001598;28;20400;-81
2022/12/22 03:57:14;;;;;;;1.17;1.08;;;8.30;99.90;;;;;;4994002;28;20043;-80
2022/12/22 03:59:40;;;;;;;1.38;0.80;;;8.30;99.90;;;;;;4992369;28;20054;-80
2022/12/22 04:02:06;;;;;;;2.75;1.95;;;8.40;99.90;;;;;;4992598;28;20077;-81
2022/12/22 04:04:32;;;;;;;1.45;1.10;;;8.40;99.90;;;;;;4993495;28;20488;-80
2022/12/22 04:06:58;;;;;;;2.78;2.30;;;8.40;99.90;;;;;;4993469;28;20046;-80
2022/12/22 04:09:25;;;;;;;0.93;0.82;;;8.40;99.90;;;;;;5011244;28;20045;-80
2022/12/22 04:14:36;;;;;;;1.75;0.47;;;8.30;99.90;;;;;;5011052;28;20592;-80
2022/12/22 04:17:06;;;;;;;1.60;1.50;;;8.30;99.90;;;;;;5010992;28;20045;-81
2022/12/22 04:19:32;;;;;;;1.35;1.25;;;8.30;99.90;;;;;;5012884;28;20046;-81
2022/12/22 04:21:58;;;;;;;0.70;0.70;;;8.40;99.90;;;;;;5013363;28;20108;-80
2022/12/22 04:24:24;;;;;;;2.33;2.13;;;8.40;99.90;;;;;;5012306;28;20052;-81
2022/12/22 04:26:50;;;;;;;0.93;0.82;;;8.40;99.90;;;;;;4999440;28;20069;-80
2022/12/22 04:29:16;;;;;;;1.02;0.95;;;8.40;99.90;;;;;;4992534;28;20046;-81
2022/12/22 04:31:42;;;;;;;1.50;1.40;;;8.40;99.90;;;;;;4993567;28;20479;-81
2022/12/22 04:34:08;;;;;;;1.10;1.05;;;8.30;99.90;;;;;;4975876;28;20542;-81
2022/12/22 04:36:33;;;;;;;3.58;2.50;;;8.30;99.90;;;;;;5000098;28;20104;-81
2022/12/22 04:38:59;;;;;;;2.03;1.80;;;8.30;99.90;;;;;;5007487;28;20124;-81
2022/12/22 04:41:25;;;;;;;2.25;2.05;;;8.40;99.90;;;;;;5012445;28;20056;-81
2022/12/22 04:43:51;;;;;;;1.65;1.55;;;8.40;99.90;;;;;;5011075;28;20054;-82
2022/12/22 04:46:16;;;;;;;1.50;1.40;;;8.40;99.90;;;;;;5011987;28;20042;-81
2022/12/22 04:48:42;;;;;;;1.40;1.27;;;8.40;99.90;;;;;;5011380;28;20046;-81
2022/12/22 04:51:08;;;;;;;3.08;1.75;;;8.40;99.90;;;;;;5026811;28;20080;-80
2022/12/22 04:53:34;;;;;;;2.42;1.17;;;8.40;99.90;;;;;;5030897;28;20425;-80
2022/12/22 04:56:03;;;;;;;3.13;1.73;;;8.40;99.90;;;;;;5030431;28;20049;-81
2022/12/22 04:58:29;;;;;;;0.73;0.65;;;8.40;99.90;;;;;;5029811;28;20046;-80
2022/12/22 05:00:55;;;;;;;1.48;1.15;;;8.40;99.90;;;;;;5016463;28;20515;-80
2022/12/22 05:03:22;;;;;;;4.75;1.67;;;8.30;99.90;;;;;;5010302;28;20096;-80
2022/12/22 05:05:48;;;;;;;2.45;2.25;;;8.30;99.90;;;;;;5010158;28;20120;-81
2022/12/22 05:08:13;;;;;;;1.75;1.27;;;8.30;99.90;;;;;;5018611;28;20045;-81
2022/12/22 05:10:39;;;;;;;2.85;2.22;;;8.40;99.90;;;;;;5029159;28;20088;-80
2022/12/22 05:13:05;;;;;;;4.82;2.72;;;8.40;99.90;;;;;;5030299;28;20042;-81
2022/12/22 05:15:32;;;;;;;3.72;0.73;;;8.30;99.90;;;;;;5030054;28;20045;-80
2022/12/22 05:17:59;;;;;;;1.52;1.42;;;8.40;99.90;;;;;;5030495;28;20410;-81
2022/12/22 05:20:25;;;;;;;5.32;2.60;;;8.40;99.90;;;;;;5025418;28;20052;-80
2022/12/22 05:22:51;;;;;;;6.80;2.28;;;8.40;99.90;;;;;;5021233;28;20207;-82
2022/12/22 05:25:21;;;;;;;1.65;1.50;;;8.40;99.90;;;;;;5032978;28;20524;-80
2022/12/22 05:27:48;;;;;;;1.63;1.52;;;8.40;99.90;;;;;;5040067;28;20052;-80
2022/12/22 05:30:15;;;;;;;1.98;1.75;;;8.30;99.90;;;;;;5039919;28;20043;-81
2022/12/22 05:32:41;;;;;;;8.57;2.92;;;8.50;99.90;;;;;;5039766;28;20483;-80
2022/12/22 05:35:08;;;;;;;2.22;2.03;;;8.30;99.90;;;;;;5038866;28;20040;-81
2022/12/22 05:37:34;;;;;;;7.05;2.63;;;8.30;99.90;;;;;;5041582;28;20047;-81
2022/12/22 05:39:59;;;;;;;5.10;3.40;;;8.30;99.90;;;;;;5017819;28;20043;-81
2022/12/22 05:42:34;;;;;;;1.45;1.35;;;8.30;99.90;;;;;;5014024;28;20048;-82
2022/12/22 05:45:08;;;;;;;8.85;2.00;;;8.30;99.90;;;;;;5011477;28;20053;-81
2022/12/22 05:47:34;;;;;;;2.25;1.33;;;8.30;99.90;;;;;;5011732;28;20042;-81
2022/12/22 05:49:59;;;;;;;5.78;2.45;;;8.30;99.90;;;;;;5007393;28;20481;-81
2022/12/22 05:52:25;;;;;;;3.05;2.58;;;9.40;99.90;;;;;;4991449;28;20055;-80
2022/12/22 05:54:51;;;;;;;1.30;1.20;;;8.20;99.90;;;;;;4992471;28;20526;-81
2022/12/22 05:57:16;;;;;;;2.20;1.98;;;8.20;99.90;;;;;;4992263;28;20074;-81
2022/12/22 05:59:42;;;;;;;3.85;2.40;;;8.20;99.90;;;;;;4990736;28;20104;-81
2022/12/22 06:02:07;;;;;;;0.85;0.77;;;8.20;99.90;;;;;;5010291;28;20041;-81
2022/12/22 06:04:33;;;;;;;5.53;2.10;;;8.20;99.90;;;;;;5010762;28;20117;-81
2022/12/22 06:06:59;;;;;;;3.72;2.83;;;8.20;99.90;;;;;;5008472;28;20046;-81
2022/12/22 06:09:24;;;;;;;3.85;2.17;;;8.10;99.90;;;;;;4992802;28;20047;-81
2022/12/22 06:11:50;;;;;;;3.95;2.17;;;8.10;99.90;;;;;;5015826;28;20060;-80
2022/12/22 06:14:16;;;;;;;8.98;2.63;;;8.10;99.90;;;;;;5005910;28;20113;-81
2022/12/22 06:16:41;;;;;;;2.25;1.33;;;8.00;99.90;;;;;;5013101;28;20057;-81
2022/12/22 06:19:07;;;;;;;1.38;1.27;;;7.90;99.90;;;;;;5013803;28;20046;-81
2022/12/22 06:21:33;;;;;;;6.50;2.75;;;7.90;99.90;;;;;;5009335;28;20054;-81
2022/12/22 06:23:58;;;;;;;1.92;1.83;;;7.80;99.90;;;;;;4999173;28;20543;-81
2022/12/22 06:26:24;;;;;;;1.45;1.33;;;7.80;99.90;;;;;;4989504;28;20523;-81
2022/12/22 06:28:50;;;;;;;0.60;0.50;;;7.80;99.90;;;;;;4990046;28;20101;-81
2022/12/22 06:31:15;;;;;;;4.05;2.20;;;7.80;99.90;;;;;;4989405;28;20271;-80
2022/12/22 06:33:41;;;;;;;2.78;2.53;;;8.20;99.90;;;;;;4987708;28;20041;-81
2022/12/22 06:36:07;;;;;;;3.53;3.08;;;7.70;99.90;;;;;;4993824;28;20113;-81
2022/12/22 06:38:33;;;;;;;2.03;1.70;;;7.80;99.90;;;;;;5004532;28;20062;-81
2022/12/22 06:40:59;;;;;;;2.97;1.45;;;7.70;99.90;;;;;;5014087;28;20053;-81
2022/12/22 06:43:25;;;;;;;12.35;2.58;;;7.60;99.90;;;;;;5012051;28;20376;-81
2022/12/22 06:45:52;;;;;;;4.80;1.42;;;7.40;99.90;;;;;;5012043;28;20050;-80
2022/12/22 06:48:18;;;;;;;0.75;0.75;;;7.30;99.90;;;;;;5014262;28;20033;-80
2022/12/22 06:50:44;;;;;;;0.82;0.82;;;7.10;99.90;;;;;;5015739;28;20090;-80
2022/12/22 06:53:10;;;;;;;5.43;3.00;;;6.90;99.90;;;;;;5014269;28;20054;-80
2022/12/22 06:55:36;;;;;;;1.80;1.70;;;6.70;99.90;;;;;;5013885;28;20100;-80
2022/12/22 06:58:02;;;;;;;1.45;1.38;;;6.60;99.90;;;;;;5013950;28;20049;-80
2022/12/22 07:00:28;;;;;;;0.47;0.47;;;6.40;99.90;;;;;;5013452;28;20042;-80
2022/12/22 07:02:54;;;;;;;2.05;1.88;;;6.30;99.90;;;;;;5014068;28;20108;-80
2022/12/22 07:05:20;;;;;;;1.38;1.27;;;6.20;99.90;;;;;;5015643;28;20054;-79
2022/12/22 07:07:45;;;;;;;2.80;2.20;;;6.10;99.90;;;;;;5011968;28;20049;-80
2022/12/22 07:10:12;;;;;;;3.42;1.73;;;6.00;99.90;;;;;;5013159;28;20054;-80
2022/12/22 07:12:37;;;;;;;1.88;1.60;;;5.90;99.90;;;;;;5035164;28;20041;-80
2022/12/22 07:15:03;;;;;;;5.32;3.15;;;6.00;99.90;;;;;;5039161;28;20037;-80
2022/12/22 07:17:29;;;;;;;3.53;2.05;;;6.00;99.90;;;;;;5035188;28;20063;-80
2022/12/22 07:19:54;;;;;;;3.47;2.50;;;6.00;99.90;;;;;;5035088;28;20125;-80
2022/12/22 07:22:20;;;;;;;2.88;2.03;;;6.10;99.90;;;;;;5032629;28;20406;-79
2022/12/22 07:24:46;;;;;;;7.13;2.38;;;6.20;99.90;;;;;;5031118;28;20052;-80
2022/12/22 07:27:11;;;;;;;1.63;1.52;;;6.20;99.90;;;;;;5031167;28;20148;-79
2022/12/22 07:29:39;;;;;;;1.55;1.48;;;6.40;99.90;;;;;;5030993;28;20054;-79
2022/12/22 07:32:05;;;;;;;1.25;1.15;;;6.60;99.90;;;;;;5030488;28;20058;-79
2022/12/22 07:34:31;;;;;;;1.75;1.55;;;6.80;99.90;;;;;;5031054;28;20053;-80
2022/12/22 07:36:56;;;;;;;2.40;1.38;;;6.90;99.90;;;;;;5013213;28;20753;-80
2022/12/22 07:39:22;;;;;;;2.05;1.83;;;7.00;99.90;;;;;;5033570;28;20138;-79
2022/12/22 07:44:32;;;;;;;1.35;0.95;;;7.10;99.90;;;;;;5028891;28;20140;-80
2022/12/22 07:46:58;;;;;;;2.50;1.90;;;7.10;99.90;;;;;;5029068;28;20050;-80
2022/12/22 07:52:08;;;;;;;4.47;2.47;;;7.00;99.90;;;;;;5028322;28;20080;-79
2022/12/22 07:54:34;;;;;;;2.55;2.17;;;6.90;99.90;;;;;;5025948;28;20045;-80
2022/12/22 07:57:00;;;;;;;1.15;1.05;;;6.90;99.90;;;;;;5026123;28;20125;-80
2022/12/22 07:59:25;;;;;;;1.77;1.67;;;6.80;99.90;;;;;;5025611;28;20585;-80
2022/12/22 08:01:51;;;;;;;0.28;0.28;;;6.70;99.90;;;;;;5026954;28;20061;-80
2022/12/22 08:04:17;;;;;;;0.90;0.88;;;6.70;99.90;;;;;;5028770;28;20124;-80
2022/12/22 08:06:43;;;;;;;0.55;0.55;;;6.70;99.90;;;;;;5029316;28;20041;-80
2022/12/22 08:09:12;;;;;;;3.15;1.83;;;6.60;99.90;;;;;;5029005;28;20079;-80
2022/12/22 08:11:38;;;;;;;1.35;1.23;;;6.60;99.90;;;;;;5028926;28;20053;-80
2022/12/22 08:14:04;;;;;;;1.73;1.52;;;6.60;99.90;;;;;;5029657;28;20406;-80
2022/12/22 08:16:29;;;;;;;3.33;1.70;;;6.60;99.90;;;;;;5029577;28;20049;-80
2022/12/22 08:19:01;;;;;;;1.20;0.98;;;6.60;99.90;;;;;;5027411;28;20050;-81
2022/12/22 08:21:27;;;;;;;2.03;1.38;;;6.60;99.90;;;;;;5028134;28;20041;-80
2022/12/22 08:23:52;;;;;;;3.17;1.63;;;6.70;99.90;;;;;;5029248;28;20052;-80
2022/12/22 08:26:25;;;;;;;2.35;1.55;;;6.70;99.90;;;;;;5012446;28;20124;-80
2022/12/22 08:29:10;;;;;;;2.13;1.95;;;6.80;99.90;;;;;;5030714;28;20406;-79
2022/12/22 08:31:35;;;;;;;0.95;0.85;;;6.70;99.90;;;;;;5030559;28;20057;-79
2022/12/22 08:34:05;;;;;;;3.20;1.35;;;6.70;99.90;;;;;;5030667;28;20041;-80
2022/12/22 08:36:39;;;;;;;1.38;0.82;;;6.70;99.90;;;;;;5013635;28;20064;-79
2022/12/22 08:39:05;;;;;;;1.45;1.13;;;6.70;99.90;;;;;;5033986;28;20414;-80
2022/12/22 08:41:50;;;;;;;2.45;1.70;;;6.70;99.90;;;;;;5031278;28;20061;-79
2022/12/22 08:44:27;;;;;;;2.47;1.05;;;6.60;99.90;;;;;;5031836;28;20490;-80
2022/12/22 08:46:54;;;;;;;1.58;1.48;;;6.60;99.90;;;;;;5030849;28;20045;-80
2022/12/22 08:49:20;;;;;;;0.30;0.30;;;6.60;99.90;;;;;;5030129;28;20049;-80
2022/12/22 08:51:47;;;;;;;1.95;1.65;;;6.50;99.90;;;;;;5012241;28;20045;-80
2022/12/22 08:54:13;;;;;;;1.13;0.98;;;6.60;99.90;;;;;;5031137;28;20053;-79
2022/12/22 08:56:39;;;;;;;1.38;1.27;;;6.50;99.90;;;;;;5013308;28;20598;-80
2022/12/22 08:59:06;;;;;;;0.52;0.52;;;6.50;99.90;;;;;;5031051;28;20145;-80
2022/12/22 09:01:35;;;;;;;2.20;1.17;;;6.40;99.90;;;;;;5031438;28;20099;-80
2022/12/22 09:04:01;;;;;;;0.60;0.55;;;6.50;99.90;;;;;;5031408;28;20053;-80
2022/12/22 09:06:27;;;;;;;0.70;0.68;;;6.50;99.90;;;;;;5030968;28;20041;-80
2022/12/22 09:09:01;;;;;;;1.42;1.17;;;6.50;99.90;;;;;;5030564;28;20041;-80
2022/12/22 09:11:28;;;;;;;0.55;0.45;;;6.60;99.90;;;;;;5030504;28;20049;-80
2022/12/22 09:13:56;;;;;;;1.73;1.15;;;6.60;99.90;;;;;;5030052;28;20041;-81
2022/12/22 09:16:24;;;;;;;31.75;4.40;;;6.50;99.90;;;;;;5029018;28;20056;-80
2022/12/22 09:18:50;;;;;;;1.13;1.02;;;6.60;99.90;;;;;;5013086;28;20049;-80
2022/12/22 09:21:16;;;;;;;1.95;1.48;;;6.60;99.90;;;;;;5027378;28;20106;-80
2022/12/22 09:23:42;;;;;;;1.20;0.52;;;6.60;99.90;;;;;;5026203;28;20041;-79
2022/12/22 09:26:12;;;;;;;1.33;0.93;;;6.60;99.90;;;;;;5028940;28;20057;-80
2022/12/22 09:28:38;;;;;;;3.70;2.28;;;6.60;99.90;;;;;;5029711;28;20063;-80
2022/12/22 09:31:05;;;;;;;0.90;0.82;;;6.60;99.90;;;;;;5026331;28;20059;-79
2022/12/22 09:33:31;;;;;;;0.88;0.28;;;6.60;99.90;;;;;;5028479;28;20124;-80
2022/12/22 09:35:57;;;;;;;0.68;0.52;;;6.90;99.90;;;;;;5031001;28;20465;-80
2022/12/22 09:38:27;;;;;;;0.52;0.50;;;6.50;99.90;;;;;;5010763;28;20053;-79
2022/12/22 09:40:56;;;;;;;0.13;0.13;;;6.50;99.90;;;;;;5026367;28;20441;-79
2022/12/22 09:43:27;;;;;;;6.10;1.77;;;6.40;99.90;;;;;;5027390;28;20056;-80
2022/12/22 09:45:54;;;;;;;0.55;0.55;;;6.40;99.90;;;;;;5030486;28;20045;-80
2022/12/22 09:48:20;;;;;;;1.88;1.52;;;6.30;99.90;;;;;;5030162;28;20501;-80
2022/12/22 09:50:47;;;;;;;0.00;0.00;;;6.30;99.90;;;;;;5026559;28;20057;-79
2022/12/22 09:53:31;;;;;;;0.75;0.75;;;6.40;99.90;;;;;;5026433;28;20041;-80
2022/12/22 09:55:57;;;;;;;0.43;0.35;;;6.40;99.90;;;;;;5029427;28;20505;-80
2022/12/22 09:58:27;;;;;;;1.55;1.13;;;6.40;99.90;;;;;;5030015;28;20049;-80
2022/12/22 10:01:13;;;;;;;0.70;0.65;;;6.40;99.90;;;;;;5029335;28;20435;-80
2022/12/22 10:03:55;;;;;;;1.38;0.70;;;6.30;99.90;;;;;;5030219;28;20120;-79
2022/12/22 10:06:56;;;;;;;0.05;0.05;;;6.20;99.90;;;;;;5029552;28;20052;-80
2022/12/22 10:09:25;;;;;;;0.25;0.25;;;6.30;99.90;;;;;;5029218;28;20562;-80
2022/12/22 10:12:03;;;;;;;0.73;0.68;;;6.20;99.90;;;;;;5012014;28;20566;-80
2022/12/22 10:14:38;;;;;;;1.45;0.38;;;6.20;99.90;;;;;;5030086;28;20423;-80
2022/12/22 10:17:20;;;;;;;0.47;0.43;;;6.20;99.90;;;;;;5029638;28;20128;-80
2022/12/22 10:19:47;;;;;;;1.58;0.90;;;6.30;99.90;;;;;;5030274;28;20133;-80
2022/12/22 10:22:44;;;;;;;0.08;0.05;;;6.30;99.90;;;;;;5030547;28;20121;-80
2022/12/22 10:25:25;;;;;;;2.40;1.90;;;6.40;99.90;;;;;;5034270;28;20154;-80
2022/12/22 10:27:53;;;;;;;0.30;0.30;;;6.50;99.90;;;;;;4992750;28;20487;-80
2022/12/22 10:30:33;;;;;;;1.25;1.15;;;6.60;99.90;;;;;;5010551;28;20042;-80
2022/12/22 10:33:06;;;;;;;1.90;1.10;;;6.70;99.90;;;;;;5009912;28;20065;-80
2022/12/22 10:35:47;;;;;;;1.35;0.68;;;6.70;99.90;;;;;;4997093;28;20064;-80
2022/12/22 10:38:31;;;;;;;1.25;1.15;;;6.80;99.90;;;;;;5030300;28;20069;-80
2022/12/22 10:41:12;;;;;;;0.00;0.00;;;7.00;99.90;;;;;;5030624;28;20111;-80
2022/12/22 10:43:47;;;;;;;0.50;0.50;;;7.10;99.90;;;;;;5029979;28;20045;-80
2022/12/22 10:46:13;;;;;;;0.40;0.32;;;7.10;99.90;;;;;;5039414;28;20045;-80
2022/12/22 10:48:39;;;;;;;1.55;1.45;;;7.30;99.90;;;;;;5050021;28;20055;-80
2022/12/22 10:51:11;;;;;;;2.08;1.55;;;7.40;99.90;;;;;;5031728;28;20044;-80
2022/12/22 10:53:49;;;;;;;0.80;0.80;;;7.60;99.90;;;;;;5048691;28;20045;-80
2022/12/22 10:56:28;;;;;;;1.70;0.88;;;7.60;99.90;;;;;;5049577;28;20045;-80
2022/12/22 10:59:09;;;;;;;0.30;0.30;;;7.60;99.90;;;;;;5048949;28;20041;-80
2022/12/22 11:01:36;;;;;;;0.85;0.85;;;7.70;99.90;;;;;;5049123;28;20052;-80
2022/12/22 11:04:23;;;;;;;3.13;0.82;;;7.80;99.90;;;;;;5047711;28;20532;-80
2022/12/22 11:06:49;;;;;;;1.75;1.38;;;7.70;99.90;;;;;;5034756;28;20060;-80
2022/12/22 11:09:15;;;;;;;0.17;0.17;;;7.80;99.90;;;;;;5029627;28;20439;-80
2022/12/22 11:11:55;;;;;;;0.45;0.45;;;7.70;99.90;;;;;;5012272;28;20045;-80
2022/12/22 11:14:55;;;;;;;1.02;0.93;;;7.50;99.90;;;;;;5030363;28;20053;-80
2022/12/22 11:17:55;;;;;;;0.75;0.65;;;7.30;99.90;;;;;;5048214;28;20107;-80
2022/12/22 11:21:03;;;;;;;0.10;0.10;;;7.20;99.90;;;;;;5049329;28;20059;-80
2022/12/22 11:23:28;;;;;;;;;;;7.10;99.90;;;;;;4947963;29;20211;-80
2022/12/22 11:26:22;;;;;;;0.17;0.17;;;6.90;99.90;;;;;;5019856;28;19983;-80
2022/12/22 11:29:25;;;;;;;1.60;1.45;;;7.00;99.90;;;;;;5028332;28;20081;-80
2022/12/22 11:32:07;;;;;;;0.77;0.77;;;7.10;99.90;;;;;;5027913;28;20446;-80
2022/12/22 11:34:48;;;;;;;0.10;0.08;;;7.10;99.90;;;;;;5027377;28;20053;-80
2022/12/22 11:38:06;;;;;;;0.65;0.43;;;7.20;99.90;;;;;;5045640;28;20080;-80
2022/12/22 11:40:44;;;;;;;0.43;0.43;;;7.20;99.90;;;;;;4992318;28;20049;-80
2022/12/22 11:43:17;;;;;;;1.20;0.75;;;7.20;99.90;;;;;;5047414;28;20080;-79
2022/12/22 11:46:12;;;;;;;0.00;0.00;;;7.30;99.90;;;;;;5047614;28;20056;-80
2022/12/22 11:48:51;;;;;;;13.05;1.80;;;7.40;99.90;;;;;;5048862;28;20080;-80
2022/12/22 11:51:54;;;;;;;0.43;0.38;;;7.50;99.90;;;;;;5048548;28;20207;-80
2022/12/22 11:54:48;;;;;;;0.70;0.70;;;7.60;99.90;;;;;;5048985;28;20056;-80
2022/12/22 11:57:21;;;;;;;2.10;1.35;;;7.70;99.90;;;;;;5047696;28;20060;-80
2022/12/22 11:59:54;;;;;;;0.35;0.35;;;7.80;99.90;;;;;;5049119;28;20051;-81
2022/12/22 12:02:48;;;;;;;1.15;1.10;;;7.80;99.90;;;;;;5048321;28;20179;-80
2022/12/22 12:05:18;;;;;;;0.03;0.03;;;7.80;99.90;;;;;;5003110;28;20059;-80
2022/12/22 12:08:12;;;;;;;0.52;0.47;;;7.90;99.90;;;;;;5009489;28;20096;-80
2022/12/22 12:10:46;;;;;;;0.77;0.68;;;7.90;99.90;;;;;;5008765;28;20045;-80
2022/12/22 12:13:21;;;;;;;0.63;0.57;;;7.90;99.90;;;;;;5008898;28;20072;-80
2022/12/22 12:15:52;;;;;;;4.97;0.55;;;8.00;99.90;;;;;;5020246;28;20061;-80
2022/12/22 12:18:51;;;;;;;7.05;2.03;;;8.10;99.90;;;;;;5048296;28;20272;-80
2022/12/22 12:21:25;;;;;;;1.10;1.00;;;8.10;99.90;;;;;;5048130;28;20052;-80
2022/12/22 12:24:00;;;;;;;0.85;0.85;;;8.20;99.90;;;;;;5048046;28;20045;-80
2022/12/22 12:26:45;;;;;;;0.00;0.00;;;8.20;99.90;;;;;;5025794;28;20057;-80
2022/12/22 12:29:24;;;;;;;1.10;0.70;;;8.30;99.90;;;;;;5011323;28;20038;-81
2022/12/22 12:31:56;;;;;;;0.75;0.68;;;8.40;99.90;;;;;;5010231;28;20363;-80
2022/12/22 12:34:23;;;;;;;1.88;0.85;;;8.40;99.90;;;;;;5008501;28;20081;-80
2022/12/22 12:37:03;;;;;;;0.90;0.60;;;8.60;99.90;;;;;;5037133;28;20432;-80
2022/12/22 12:39:55;;;;;;;0.77;0.55;;;8.60;99.90;;;;;;5047641;28;20399;-81
2022/12/22 12:42:37;;;;;;;2.08;1.00;;;8.50;99.90;;;;;;5048645;28;20125;-80
2022/12/22 12:45:04;;;;;;;0.20;0.20;;;8.50;99.90;;;;;;5029429;28;20064;-80
2022/12/22 12:47:34;;;;;;;0.77;0.55;;;8.40;99.90;;;;;;5008247;28;20050;-80
2022/12/22 12:50:21;;;;;;;2.38;0.73;;;8.40;99.90;;;;;;5008142;28;20108;-80
2022/12/22 12:52:49;;;;;;;0.95;0.57;;;8.30;99.90;;;;;;4990913;28;20050;-81
2022/12/22 12:55:25;;;;;;;0.00;0.00;;;8.30;99.90;;;;;;5013526;28;20403;-80
2022/12/22 12:57:51;;;;;;;0.00;0.00;;;8.30;99.90;;;;;;5027969;28;20049;-80
2022/12/22 13:00:32;;;;;;;1.02;1.00;;;8.30;99.90;;;;;;5027718;28;20064;-80
2022/12/22 13:03:09;;;;;;;0.65;0.65;;;8.30;99.90;;;;;;5027458;28;20045;-80
2022/12/22 13:05:49;;;;;;;0.00;0.00;;;8.40;99.90;;;;;;5024549;28;20064;-80
2022/12/22 13:08:19;;;;;;;0.60;0.60;;;8.50;99.90;;;;;;5008485;28;20050;-80
2022/12/22 13:10:54;;;;;;;0.30;0.10;;;8.50;99.90;;;;;;5008312;28;20160;-80
2022/12/22 13:13:22;;;;;;;0.95;0.70;;;8.60;99.90;;;;;;5006996;28;20466;-80
2022/12/22 13:16:06;;;;;;;0.32;0.32;;;8.70;99.90;;;;;;5013308;28;20054;-80
2022/12/22 13:18:45;;;;;;;0.43;0.43;;;8.70;99.90;;;;;;5027620;28;20089;-80
2022/12/22 13:21:26;;;;;;;0.85;0.43;;;8.70;99.90;;;;;;5027342;28;20092;-80
2022/12/22 13:23:54;;;;;;;0.25;0.20;;;8.60;99.90;;;;;;5026901;28;20083;-80
2022/12/22 13:26:39;;;;;;;0.60;0.30;;;8.60;99.90;;;;;;5036575;28;20341;-80
2022/12/22 13:29:26;;;;;;;8.88;0.70;;;8.60;99.90;;;;;;5047043;28;20265;-80
2022/12/22 13:32:12;;;;;;;;;;;8.70;99.90;;;;;;5047758;28;20045;-80
2022/12/22 13:34:40;;;;;;;0.63;0.40;;;9.90;99.90;;;;;;5031788;28;19932;-80
2022/12/22 13:37:17;;;;;;;3.17;0.65;;;8.90;99.90;;;;;;5029178;28;20056;-80
2022/12/22 13:40:06;;;;;;;0.70;0.32;;;9.00;99.90;;;;;;5026619;28;20108;-80
2022/12/22 13:42:40;;;;;;;1.27;0.55;;;9.00;99.90;;;;;;5026799;28;20049;-80
2022/12/22 13:45:15;;;;;;;0.47;0.47;;;9.10;99.90;;;;;;5027043;28;20220;-80
2022/12/22 13:47:42;;;;;;;0.32;0.22;;;9.10;99.90;;;;;;5007628;28;20122;-80
2022/12/22 13:50:33;;;;;;;0.47;0.43;;;9.10;99.90;;;;;;5007006;28;20041;-80
2022/12/22 13:53:01;;;;;;;2.40;1.45;;;9.10;99.90;;;;;;4985870;28;20484;-80
2022/12/22 13:55:31;;;;;;;0.70;0.68;;;9.10;99.90;;;;;;5011900;28;20061;-81
2022/12/22 13:58:05;;;;;;;0.20;0.20;;;9.10;99.90;;;;;;5045696;28;20041;-81
2022/12/22 14:00:32;;;;;;;1.88;0.65;;;9.20;99.90;;;;;;5046528;28;20118;-81
2022/12/22 14:02:57;;;;;;;0.00;0.00;;;9.10;99.90;;;;;;5046568;28;20532;-80
2022/12/22 14:05:30;;;;;;;0.50;0.50;;;9.10;99.90;;;;;;5043953;28;20045;-80
2022/12/22 14:08:03;;;;;;;0.35;0.30;;;9.10;99.90;;;;;;5008143;28;20064;-80
2022/12/22 14:10:38;;;;;;;0.52;0.52;;;9.10;99.90;;;;;;5026151;28;20053;-80
2022/12/22 14:13:10;;;;;;;0.68;0.60;;;9.20;99.90;;;;;;5027008;28;20515;-80
2022/12/22 14:15:35;;;;;;;0.60;0.60;;;9.30;99.90;;;;;;5030326;28;20120;-80
2022/12/22 14:18:01;;;;;;;1.25;0.82;;;9.20;99.90;;;;;;5045545;28;20137;-80
2022/12/22 14:20:36;;;;;;;0.25;0.22;;;9.20;99.90;;;;;;5045783;28;20498;-80
2022/12/22 14:23:26;;;;;;;5.18;1.25;;;9.20;99.90;;;;;;5045480;28;20056;-80
2022/12/22 14:25:53;;;;;;;0.20;0.10;;;9.20;99.90;;;;;;5044733;28;20068;-80
2022/12/22 14:28:31;;;;;;;0.45;0.45;;;9.10;99.90;;;;;;5045861;28;20045;-80
2022/12/22 14:30:58;;;;;;;0.08;0.08;;;9.00;99.90;;;;;;5027395;28;20506;-80
2022/12/22 14:33:27;;;;;;;0.10;0.10;;;9.00;99.90;;;;;;5027977;28;20041;-80
2022/12/22 14:36:25;;;;;;;0.00;0.00;;;8.90;99.90;;;;;;5044984;28;20055;-80
2022/12/22 14:39:07;;;;;;;2.72;2.40;;;8.90;99.90;;;;;;5044848;28;20667;-80
2022/12/22 14:41:55;;;;;;;0.08;0.05;;;9.00;99.90;;;;;;5046276;28;20053;-80
2022/12/22 14:44:24;;;;;;;0.03;0.03;;;8.90;99.90;;;;;;5045273;28;20483;-80
2022/12/22 14:47:18;;;;;;;2.28;1.65;;;9.00;99.90;;;;;;5045458;28;20757;-80
2022/12/22 14:49:50;;;;;;;1.88;1.05;;;8.70;99.90;;;;;;5045943;28;20052;-80
2022/12/22 14:52:34;;;;;;;0.00;0.00;;;8.70;99.90;;;;;;5028304;28;20055;-80
2022/12/22 14:55:05;;;;;;;0.00;0.00;;;8.60;99.90;;;;;;5046306;28;20129;-80
2022/12/22 14:57:38;;;;;;;0.00;0.00;;;8.50;99.90;;;;;;5046490;28;20383;-80
2022/12/22 15:00:22;;;;;;;0.60;0.35;;;8.30;99.90;;;;;;5045923;28;20053;-80
2022/12/22 15:02:59;;;;;;;0.05;0.03;;;8.20;99.90;;;;;;5046717;28;20461;-80
2022/12/22 15:05:36;;;;;;;0.00;0.00;;;8.20;99.90;;;;;;5046645;28;20081;-80
2022/12/22 15:08:03;;;;;;;0.03;0.03;;;8.00;99.90;;;;;;5047194;28;20044;-80
2022/12/22 15:10:38;;;;;;;0.22;0.22;;;7.90;99.90;;;;;;5050360;28;20037;-80
2022/12/22 15:13:06;;;;;;;1.83;0.60;;;7.90;99.90;;;;;;5050254;28;20596;-80
2022/12/22 15:15:33;;;;;;;0.10;0.10;;;7.90;99.90;;;;;;5049816;28;20516;-80
2022/12/22 15:17:59;;;;;;;0.55;0.55;;;7.90;99.90;;;;;;5050365;28;20044;-80
2022/12/22 15:20:26;;;;;;;0.25;0.25;;;7.90;99.90;;;;;;5049143;28;20051;-80
2022/12/22 15:22:54;;;;;;;0.20;0.20;;;8.00;99.90;;;;;;5050751;28;20144;-80
2022/12/22 15:25:21;;;;;;;0.10;0.10;;;8.00;99.90;;;;;;5050411;28;20052;-80
2022/12/22 15:27:48;;;;;;;0.10;0.10;;;8.00;99.90;;;;;;5050188;28;20048;-81
2022/12/22 15:30:17;;;;;;;0.20;0.20;;;8.00;99.90;;;;;;5032290;28;20517;-80
2022/12/22 15:32:43;;;;;;;0.25;0.25;;;8.00;99.90;;;;;;5032484;28;20096;-80
2022/12/22 15:35:24;;;;;;;0.00;0.00;;;8.10;99.90;;;;;;5049874;28;20041;-80
2022/12/22 15:37:50;;;;;;;0.00;0.00;;;8.10;99.90;;;;;;5049876;28;20056;-80
2022/12/22 15:40:19;;;;;;;2.13;1.60;;;8.20;99.90;;;;;;5031884;28;20049;-81
2022/12/22 15:42:44;;;;;;;7.65;2.53;;;8.10;99.90;;;;;;5049775;28;20049;-80
2022/12/22 15:45:12;;;;;;;0.00;0.00;;;8.20;99.90;;;;;;5050394;28;20128;-80
2022/12/22 15:47:38;;;;;;;0.25;0.25;;;8.10;99.90;;;;;;5038743;28;20056;-80
2022/12/22 15:50:06;;;;;;;0.00;0.00;;;7.90;99.90;;;;;;5045515;28;20118;-80
2022/12/22 15:52:32;;;;;;;0.00;0.00;;;7.80;99.90;;;;;;5040547;28;20049;-80
2022/12/22 15:54:58;;;;;;;0.00;0.00;;;7.80;99.90;;;;;;5040426;28;20501;-80
2022/12/22 15:57:24;;;;;;;0.20;0.20;;;7.70;99.90;;;;;;5047162;28;20071;-80
2022/12/22 15:59:50;;;;;;;0.15;0.15;;;7.70;99.90;;;;;;5049785;28;20049;-80
2022/12/22 16:02:15;;;;;;;0.05;0.05;;;7.60;99.90;;;;;;5049596;28;20049;-80
2022/12/22 16:04:41;;;;;;;1.33;0.82;;;7.60;99.90;;;;;;5046617;28;20067;-80
2022/12/22 16:07:11;;;;;;;6.28;0.32;;;7.70;99.90;;;;;;5031312;28;20122;-80
2022/12/22 16:09:45;;;;;;;0.10;0.10;;;7.70;99.90;;;;;;5041518;28;20045;-80
2022/12/22 16:12:13;;;;;;;0.60;0.60;;;7.60;99.90;;;;;;5028100;28;20426;-80
2022/12/22 16:14:41;;;;;;;0.28;0.17;;;7.60;99.90;;;;;;5027648;28;20124;-80
2022/12/22 16:17:21;;;;;;;1.17;1.08;;;7.70;99.90;;;;;;5031982;28;20076;-80
2022/12/22 16:19:46;;;;;;;0.30;0.30;;;7.60;99.90;;;;;;5028130;28;20042;-81
2022/12/22 16:22:14;;;;;;;0.10;0.10;;;7.60;99.90;;;;;;5028524;28;20045;-80
2022/12/22 16:24:43;;;;;;;0.20;0.20;;;7.60;99.90;;;;;;5028091;28;20604;-80
2022/12/22 16:27:10;;;;;;;1.77;0.88;;;7.60;99.90;;;;;;5028164;28;20072;-80
2022/12/22 16:29:37;;;;;;;0.52;0.32;;;7.60;99.90;;;;;;5027524;28;20056;-81
2022/12/22 16:32:28;;;;;;;0.28;0.28;;;7.60;99.90;;;;;;5027344;28;20053;-80
2022/12/22 16:35:05;;;;;;;0.57;0.25;;;7.50;99.90;;;;;;5027872;28;20049;-80
2022/12/22 16:37:31;;;;;;;0.73;0.70;;;7.50;99.90;;;;;;5032468;28;20064;-80
2022/12/22 16:39:57;;;;;;;0.00;0.00;;;7.50;99.90;;;;;;5048690;28;20091;-80
2022/12/22 16:42:22;;;;;;;0.30;0.20;;;7.50;99.90;;;;;;5031219;28;20080;-80
2022/12/22 16:44:48;;;;;;;0.55;0.45;;;7.40;99.90;;;;;;5049153;28;20053;-80
2022/12/22 16:47:31;;;;;;;0.00;0.00;;;7.40;99.90;;;;;;5049587;28;20048;-80
2022/12/22 16:49:58;;;;;;;0.10;0.10;;;7.40;99.90;;;;;;5048372;28;20037;-80
2022/12/22 16:52:29;;;;;;;1.55;0.35;;;7.50;99.90;;;;;;5048791;28;20139;-80
2022/12/22 16:54:55;;;;;;;0.95;0.73;;;7.50;99.90;;;;;;5031034;28;20064;-80
2022/12/22 16:57:22;;;;;;;0.10;0.10;;;7.50;99.90;;;;;;5048532;28;20045;-80
2022/12/22 16:59:47;;;;;;;1.30;1.23;;;7.50;99.90;;;;;;5048321;28;20052;-80